sensor_id;sensor_type;location;lat;lon;timestamp;temperature;humidity
1011;DHT22;494;48.744;10.106;2024-01-30T00:01:42;3.30;1.00
1011;DHT22;494;48.744;10.106;2024-01-30T00:04:11;3.50;1.00
1011;DHT22;494;48.744;10.106;2024-01-30T00:06:41;3.40;1.00
1011;DHT22;494;48.744;10.106;2024-01-30T00:09:13;3.50;1.00
1011;DHT22;494;48.744;10.106;2024-01-30T00:11:42;3.50;1.00
1011;DHT22;494;48.744;10.106;2024-01-30T00:14:11;3.30;1.00
1011;DHT22;494;48.744;10.106;2024-01-30T00:16:43;3.30;1.00
1011;DHT22;494;48.744;10.106;2024-01-30T00:19:27;3.50;1.00
1011;DHT22;494;48.744;10.106;2024-01-30T00:21:58;3.40;1.00
1011;DHT22;494;48.744;10.106;2024-01-30T00:24:27;3.20;1.00
1011;DHT22;494;48.744;10.106;2024-01-30T00:26:56;3.20;1.00
1011;DHT22;494;48.744;10.106;2024-01-30T00:29:25;3.20;1.00
1011;DHT22;494;48.744;10.106;2024-01-30T00:31:57;3.20;1.00
1011;DHT22;494;48.744;10.106;2024-01-30T00:34:26;3.20;1.00
1011;DHT22;494;48.744;10.106;2024-01-30T00:36:55;3.30;1.00
1011;DHT22;494;48.744;10.106;2024-01-30T00:39:40;3.20;1.00
1011;DHT22;494;48.744;10.106;2024-01-30T00:42:12;3.30;1.00
1011;DHT22;494;48.744;10.106;2024-01-30T00:44:43;3.20;1.00
1011;DHT22;494;48.744;10.106;2024-01-30T00:47:16;3.20;1.00
1011;DHT22;494;48.744;10.106;2024-01-30T00:49:45;3.30;1.00
1011;DHT22;494;48.744;10.106;2024-01-30T00:52:14;3.20;1.00
1011;DHT22;494;48.744;10.106;2024-01-30T00:54:44;3.20;1.00
1011;DHT22;494;48.744;10.106;2024-01-30T00:57:13;3.00;1.00
1011;DHT22;494;48.744;10.106;2024-01-30T00:59:42;3.10;1.00
1011;DHT22;494;48.744;10.106;2024-01-30T01:02:10;3.10;1.00
1011;DHT22;494;48.744;10.106;2024-01-30T01:04:39;3.00;1.00
1011;DHT22;494;48.744;10.106;2024-01-30T01:07:07;3.10;1.00
1011;DHT22;494;48.744;10.106;2024-01-30T01:09:37;3.00;1.00
1011;DHT22;494;48.744;10.106;2024-01-30T01:12:07;3.00;1.00
1011;DHT22;494;48.744;10.106;2024-01-30T01:14:36;3.00;1.00
1011;DHT22;494;48.744;10.106;2024-01-30T01:17:05;3.00;1.00
1011;DHT22;494;48.744;10.106;2024-01-30T01:19:34;3.10;1.00
1011;DHT22;494;48.744;10.106;2024-01-30T01:22:06;3.00;1.00
1011;DHT22;494;48.744;10.106;2024-01-30T01:24:35;3.10;1.00
1011;DHT22;494;48.744;10.106;2024-01-30T01:27:06;3.10;1.00
1011;DHT22;494;48.744;10.106;2024-01-30T01:29:35;3.10;1.00
1011;DHT22;494;48.744;10.106;2024-01-30T01:32:05;3.30;1.00
1011;DHT22;494;48.744;10.106;2024-01-30T01:34:34;3.20;1.00
1011;DHT22;494;48.744;10.106;2024-01-30T01:37:03;3.20;1.00
1011;DHT22;494;48.744;10.106;2024-01-30T01:39:32;3.20;1.00
1011;DHT22;494;48.744;10.106;2024-01-30T01:42:00;3.20;1.00
1011;DHT22;494;48.744;10.106;2024-01-30T01:44:33;3.30;1.00
1011;DHT22;494;48.744;10.106;2024-01-30T01:47:04;3.30;1.00
1011;DHT22;494;48.744;10.106;2024-01-30T01:49:35;3.30;1.00
1011;DHT22;494;48.744;10.106;2024-01-30T01:52:05;3.30;1.00
1011;DHT22;494;48.744;10.106;2024-01-30T01:54:36;3.40;1.00
1011;DHT22;494;48.744;10.106;2024-01-30T01:57:07;3.40;1.00
1011;DHT22;494;48.744;10.106;2024-01-30T01:59:42;3.30;1.00
1011;DHT22;494;48.744;10.106;2024-01-30T02:02:15;3.40;1.00
1011;DHT22;494;48.744;10.106;2024-01-30T02:04:49;3.40;1.00
1011;DHT22;494;48.744;10.106;2024-01-30T02:07:18;3.50;1.00
1011;DHT22;494;48.744;10.106;2024-01-30T02:09:47;3.30;1.00
1011;DHT22;494;48.744;10.106;2024-01-30T02:12:19;3.40;1.00
1011;DHT22;494;48.744;10.106;2024-01-30T02:14:49;3.40;1.00
1011;DHT22;494;48.744;10.106;2024-01-30T02:17:25;3.30;1.00
1011;DHT22;494;48.744;10.106;2024-01-30T02:19:56;3.30;1.00
1011;DHT22;494;48.744;10.106;2024-01-30T02:22:27;3.40;1.00
1011;DHT22;494;48.744;10.106;2024-01-30T02:24:56;3.30;1.00
1011;DHT22;494;48.744;10.106;2024-01-30T02:27:25;3.40;1.00
1011;DHT22;494;48.744;10.106;2024-01-30T02:29:54;3.40;1.00
1011;DHT22;494;48.744;10.106;2024-01-30T02:32:24;3.50;1.00
1011;DHT22;494;48.744;10.106;2024-01-30T02:34:55;3.40;1.00
1011;DHT22;494;48.744;10.106;2024-01-30T02:37:24;3.40;1.00
1011;DHT22;494;48.744;10.106;2024-01-30T02:39:54;3.50;1.00
1011;DHT22;494;48.744;10.106;2024-01-30T02:42:25;3.40;1.00
1011;DHT22;494;48.744;10.106;2024-01-30T02:44:54;3.40;1.00
1011;DHT22;494;48.744;10.106;2024-01-30T02:47:22;3.40;1.00
1011;DHT22;494;48.744;10.106;2024-01-30T02:49:52;3.40;1.00
1011;DHT22;494;48.744;10.106;2024-01-30T02:52:22;3.50;1.00
1011;DHT22;494;48.744;10.106;2024-01-30T02:54:55;3.40;1.00
1011;DHT22;494;48.744;10.106;2024-01-30T02:57:24;3.40;1.00
1011;DHT22;494;48.744;10.106;2024-01-30T02:59:53;3.30;1.00
1011;DHT22;494;48.744;10.106;2024-01-30T03:02:24;3.40;1.00
1011;DHT22;494;48.744;10.106;2024-01-30T03:04:53;3.40;1.00
1011;DHT22;494;48.744;10.106;2024-01-30T03:07:22;3.40;1.00
1011;DHT22;494;48.744;10.106;2024-01-30T03:09:52;3.40;1.00
1011;DHT22;494;48.744;10.106;2024-01-30T03:12:24;3.40;1.00
1011;DHT22;494;48.744;10.106;2024-01-30T03:14:53;3.40;1.00
1011;DHT22;494;48.744;10.106;2024-01-30T03:17:22;3.30;1.00
1011;DHT22;494;48.744;10.106;2024-01-30T03:19:51;3.40;1.00
1011;DHT22;494;48.744;10.106;2024-01-30T03:22:22;3.30;1.00
1011;DHT22;494;48.744;10.106;2024-01-30T03:24:53;3.30;1.00
1011;DHT22;494;48.744;10.106;2024-01-30T03:27:23;3.30;1.00
1011;DHT22;494;48.744;10.106;2024-01-30T03:29:52;3.30;1.00
1011;DHT22;494;48.744;10.106;2024-01-30T03:32:21;3.20;1.00
1011;DHT22;494;48.744;10.106;2024-01-30T03:34:50;3.30;1.00
1011;DHT22;494;48.744;10.106;2024-01-30T03:37:19;3.30;1.00
1011;DHT22;494;48.744;10.106;2024-01-30T03:39:47;3.30;1.00
1011;DHT22;494;48.744;10.106;2024-01-30T03:42:16;3.10;1.00
1011;DHT22;494;48.744;10.106;2024-01-30T03:44:47;3.10;1.00
1011;DHT22;494;48.744;10.106;2024-01-30T03:47:21;3.10;1.00
1011;DHT22;494;48.744;10.106;2024-01-30T03:49:51;3.20;1.00
1011;DHT22;494;48.744;10.106;2024-01-30T03:52:20;3.10;1.00
1011;DHT22;494;48.744;10.106;2024-01-30T03:54:50;3.10;1.00
1011;DHT22;494;48.744;10.106;2024-01-30T03:57:19;2.90;1.00
1011;DHT22;494;48.744;10.106;2024-01-30T03:59:49;3.00;1.00
1011;DHT22;494;48.744;10.106;2024-01-30T04:02:18;3.20;1.00
1011;DHT22;494;48.744;10.106;2024-01-30T04:04:47;3.00;1.00
1011;DHT22;494;48.744;10.106;2024-01-30T04:07:16;3.00;1.00
1011;DHT22;494;48.744;10.106;2024-01-30T04:09:49;3.00;1.00
1011;DHT22;494;48.744;10.106;2024-01-30T04:12:20;3.00;1.00
1011;DHT22;494;48.744;10.106;2024-01-30T04:14:50;3.00;1.00
1011;DHT22;494;48.744;10.106;2024-01-30T04:17:19;3.00;1.00
1011;DHT22;494;48.744;10.106;2024-01-30T04:19:48;2.90;1.00
1011;DHT22;494;48.744;10.106;2024-01-30T04:22:17;3.00;1.00
1011;DHT22;494;48.744;10.106;2024-01-30T04:24:45;2.90;1.00
1011;DHT22;494;48.744;10.106;2024-01-30T04:27:14;3.00;1.00
1011;DHT22;494;48.744;10.106;2024-01-30T04:29:43;2.90;1.00
1011;DHT22;494;48.744;10.106;2024-01-30T04:32:13;2.90;1.00
1011;DHT22;494;48.744;10.106;2024-01-30T04:34:42;2.80;1.00
1011;DHT22;494;48.744;10.106;2024-01-30T04:37:10;2.90;1.00
1011;DHT22;494;48.744;10.106;2024-01-30T04:39:41;2.70;1.00
1011;DHT22;494;48.744;10.106;2024-01-30T04:42:10;2.80;1.00
1011;DHT22;494;48.744;10.106;2024-01-30T04:44:38;2.80;1.00
1011;DHT22;494;48.744;10.106;2024-01-30T04:47:07;2.80;1.00
1011;DHT22;494;48.744;10.106;2024-01-30T04:49:40;2.70;1.00
1011;DHT22;494;48.744;10.106;2024-01-30T04:52:09;2.70;1.00
1011;DHT22;494;48.744;10.106;2024-01-30T04:54:38;2.80;1.00
1011;DHT22;494;48.744;10.106;2024-01-30T04:57:06;2.80;1.00
1011;DHT22;494;48.744;10.106;2024-01-30T04:59:39;2.70;1.00
1011;DHT22;494;48.744;10.106;2024-01-30T05:02:08;2.70;1.00
1011;DHT22;494;48.744;10.106;2024-01-30T05:04:37;2.70;1.00
1011;DHT22;494;48.744;10.106;2024-01-30T05:07:08;2.50;1.00
1011;DHT22;494;48.744;10.106;2024-01-30T05:09:37;2.80;1.00
1011;DHT22;494;48.744;10.106;2024-01-30T05:12:07;2.70;1.00
1011;DHT22;494;48.744;10.106;2024-01-30T05:14:35;2.70;1.00
1011;DHT22;494;48.744;10.106;2024-01-30T05:17:04;2.70;1.00
1011;DHT22;494;48.744;10.106;2024-01-30T05:19:33;2.60;1.00
1011;DHT22;494;48.744;10.106;2024-01-30T05:22:04;2.70;1.00
1011;DHT22;494;48.744;10.106;2024-01-30T05:24:35;2.60;1.00
1011;DHT22;494;48.744;10.106;2024-01-30T05:27:04;2.70;1.00
1011;DHT22;494;48.744;10.106;2024-01-30T05:29:34;2.60;1.00
1011;DHT22;494;48.744;10.106;2024-01-30T05:32:03;2.60;1.00
1011;DHT22;494;48.744;10.106;2024-01-30T05:34:33;2.60;1.00
1011;DHT22;494;48.744;10.106;2024-01-30T05:37:05;2.60;1.00
1011;DHT22;494;48.744;10.106;2024-01-30T05:39:33;2.60;1.00
1011;DHT22;494;48.744;10.106;2024-01-30T05:42:03;2.60;1.00
1011;DHT22;494;48.744;10.106;2024-01-30T05:44:32;2.60;1.00
1011;DHT22;494;48.744;10.106;2024-01-30T05:47:00;2.60;1.00
1011;DHT22;494;48.744;10.106;2024-01-30T05:49:29;2.60;1.00
1011;DHT22;494;48.744;10.106;2024-01-30T05:51:58;2.70;1.00
1011;DHT22;494;48.744;10.106;2024-01-30T05:54:28;2.50;1.00
1011;DHT22;494;48.744;10.106;2024-01-30T05:56:57;2.50;1.00
1011;DHT22;494;48.744;10.106;2024-01-30T05:59:26;2.50;1.00
1011;DHT22;494;48.744;10.106;2024-01-30T06:01:55;2.50;1.00
1011;DHT22;494;48.744;10.106;2024-01-30T06:04:24;2.50;1.00
1011;DHT22;494;48.744;10.106;2024-01-30T06:06:54;2.50;1.00
1011;DHT22;494;48.744;10.106;2024-01-30T06:09:22;2.50;1.00
1011;DHT22;494;48.744;10.106;2024-01-30T06:11:57;2.40;1.00
1011;DHT22;494;48.744;10.106;2024-01-30T06:14:26;2.50;1.00
1011;DHT22;494;48.744;10.106;2024-01-30T06:16:56;2.40;1.00
1011;DHT22;494;48.744;10.106;2024-01-30T06:19:24;2.40;1.00
1011;DHT22;494;48.744;10.106;2024-01-30T06:21:56;2.40;1.00
1011;DHT22;494;48.744;10.106;2024-01-30T06:24:24;2.50;1.00
1011;DHT22;494;48.744;10.106;2024-01-30T06:26:57;2.40;1.00
1011;DHT22;494;48.744;10.106;2024-01-30T06:29:26;2.50;1.00
1011;DHT22;494;48.744;10.106;2024-01-30T06:31:55;2.50;1.00
1011;DHT22;494;48.744;10.106;2024-01-30T06:34:24;2.40;1.00
1011;DHT22;494;48.744;10.106;2024-01-30T06:36:54;2.50;1.00
1011;DHT22;494;48.744;10.106;2024-01-30T06:39:23;2.50;1.00
1011;DHT22;494;48.744;10.106;2024-01-30T06:41:52;2.50;1.00
1011;DHT22;494;48.744;10.106;2024-01-30T06:44:22;2.50;1.00
1011;DHT22;494;48.744;10.106;2024-01-30T06:46:51;2.70;1.00
1011;DHT22;494;48.744;10.106;2024-01-30T06:49:20;2.60;1.00
1011;DHT22;494;48.744;10.106;2024-01-30T06:51:50;2.60;1.00
1011;DHT22;494;48.744;10.106;2024-01-30T06:54:19;2.70;1.00
1011;DHT22;494;48.744;10.106;2024-01-30T06:56:48;2.70;1.00
1011;DHT22;494;48.744;10.106;2024-01-30T06:59:16;2.70;1.00
1011;DHT22;494;48.744;10.106;2024-01-30T07:01:46;2.80;1.00
1011;DHT22;494;48.744;10.106;2024-01-30T07:04:15;2.90;1.00
1011;DHT22;494;48.744;10.106;2024-01-30T07:06:45;2.90;1.00
1011;DHT22;494;48.744;10.106;2024-01-30T07:09:14;2.90;1.00
1011;DHT22;494;48.744;10.106;2024-01-30T07:11:43;3.00;1.00
1011;DHT22;494;48.744;10.106;2024-01-30T07:14:11;3.10;1.00
1011;DHT22;494;48.744;10.106;2024-01-30T07:16:40;3.20;1.00
1011;DHT22;494;48.744;10.106;2024-01-30T07:19:10;3.20;1.00
1011;DHT22;494;48.744;10.106;2024-01-30T07:21:38;3.20;1.00
1011;DHT22;494;48.744;10.106;2024-01-30T07:24:07;3.20;1.00
1011;DHT22;494;48.744;10.106;2024-01-30T07:26:36;3.20;1.00
1011;DHT22;494;48.744;10.106;2024-01-30T07:29:05;3.30;1.00
1011;DHT22;494;48.744;10.106;2024-01-30T07:31:33;3.50;1.00
1011;DHT22;494;48.744;10.106;2024-01-30T07:34:02;3.40;1.00
1011;DHT22;494;48.744;10.106;2024-01-30T07:36:33;3.50;1.00
1011;DHT22;494;48.744;10.106;2024-01-30T07:39:02;3.50;1.00
1011;DHT22;494;48.744;10.106;2024-01-30T07:41:31;3.60;1.00
1011;DHT22;494;48.744;10.106;2024-01-30T07:44:00;3.80;1.00
1011;DHT22;494;48.744;10.106;2024-01-30T07:46:29;3.80;1.00
1011;DHT22;494;48.744;10.106;2024-01-30T07:48:57;3.90;1.00
1011;DHT22;494;48.744;10.106;2024-01-30T07:51:27;4.00;1.00
1011;DHT22;494;48.744;10.106;2024-01-30T07:54:00;4.10;1.00
1011;DHT22;494;48.744;10.106;2024-01-30T07:56:28;4.30;1.00
1011;DHT22;494;48.744;10.106;2024-01-30T07:58:57;4.50;1.00
1011;DHT22;494;48.744;10.106;2024-01-30T08:01:26;4.70;1.00
1011;DHT22;494;48.744;10.106;2024-01-30T08:03:54;4.90;1.00
1011;DHT22;494;48.744;10.106;2024-01-30T08:06:24;5.00;1.00
1011;DHT22;494;48.744;10.106;2024-01-30T08:08:53;5.10;1.00
1011;DHT22;494;48.744;10.106;2024-01-30T08:11:23;5.40;1.00
1011;DHT22;494;48.744;10.106;2024-01-30T08:13:53;5.80;1.00
1011;DHT22;494;48.744;10.106;2024-01-30T08:16:22;6.20;1.00
1011;DHT22;494;48.744;10.106;2024-01-30T08:18:51;6.50;1.00
1011;DHT22;494;48.744;10.106;2024-01-30T08:21:23;6.80;1.00
1011;DHT22;494;48.744;10.106;2024-01-30T08:23:52;7.10;1.00
1011;DHT22;494;48.744;10.106;2024-01-30T08:26:22;7.20;1.00
1011;DHT22;494;48.744;10.106;2024-01-30T08:28:51;7.40;1.00
1011;DHT22;494;48.744;10.106;2024-01-30T08:31:20;7.50;1.00
1011;DHT22;494;48.744;10.106;2024-01-30T08:33:49;7.70;1.00
1011;DHT22;494;48.744;10.106;2024-01-30T08:36:19;7.80;1.00
1011;DHT22;494;48.744;10.106;2024-01-30T08:38:48;8.00;1.00
1011;DHT22;494;48.744;10.106;2024-01-30T08:41:19;8.20;1.00
1011;DHT22;494;48.744;10.106;2024-01-30T08:43:50;8.40;1.00
1011;DHT22;494;48.744;10.106;2024-01-30T08:46:19;8.80;1.00
1011;DHT22;494;48.744;10.106;2024-01-30T08:48:48;9.30;1.00
1011;DHT22;494;48.744;10.106;2024-01-30T08:51:18;9.60;1.00
1011;DHT22;494;48.744;10.106;2024-01-30T08:53:47;9.90;1.00
1011;DHT22;494;48.744;10.106;2024-01-30T08:56:16;10.00;1.00
1011;DHT22;494;48.744;10.106;2024-01-30T08:58:44;10.30;1.00
1011;DHT22;494;48.744;10.106;2024-01-30T09:01:15;10.60;1.00
1011;DHT22;494;48.744;10.106;2024-01-30T09:03:44;11.00;1.00
1011;DHT22;494;48.744;10.106;2024-01-30T09:06:14;11.30;1.00
1011;DHT22;494;48.744;10.106;2024-01-30T09:08:43;11.60;1.00
1011;DHT22;494;48.744;10.106;2024-01-30T09:11:13;11.70;1.00
1011;DHT22;494;48.744;10.106;2024-01-30T09:13:44;11.80;1.00
1011;DHT22;494;48.744;10.106;2024-01-30T09:16:15;11.70;1.00
1011;DHT22;494;48.744;10.106;2024-01-30T09:18:44;11.70;1.00
1011;DHT22;494;48.744;10.106;2024-01-30T09:21:13;11.60;1.00
1011;DHT22;494;48.744;10.106;2024-01-30T09:23:41;11.60;1.00
1011;DHT22;494;48.744;10.106;2024-01-30T09:26:10;11.40;1.00
1011;DHT22;494;48.744;10.106;2024-01-30T09:28:39;11.20;1.00
1011;DHT22;494;48.744;10.106;2024-01-30T09:31:10;11.10;1.00
1011;DHT22;494;48.744;10.106;2024-01-30T09:33:40;11.00;1.00
1011;DHT22;494;48.744;10.106;2024-01-30T09:36:11;10.80;1.00
1011;DHT22;494;48.744;10.106;2024-01-30T09:38:42;11.10;1.00
1011;DHT22;494;48.744;10.106;2024-01-30T09:41:10;11.50;1.00
1011;DHT22;494;48.744;10.106;2024-01-30T09:43:42;11.90;1.00
1011;DHT22;494;48.744;10.106;2024-01-30T09:46:17;12.30;1.00
1011;DHT22;494;48.744;10.106;2024-01-30T09:48:53;12.90;1.00
1011;DHT22;494;48.744;10.106;2024-01-30T09:51:25;13.20;1.00
1011;DHT22;494;48.744;10.106;2024-01-30T09:53:56;13.20;1.00
1011;DHT22;494;48.744;10.106;2024-01-30T09:56:25;13.10;1.00
1011;DHT22;494;48.744;10.106;2024-01-30T09:58:54;13.10;1.00
1011;DHT22;494;48.744;10.106;2024-01-30T10:01:23;13.50;1.00
1011;DHT22;494;48.744;10.106;2024-01-30T10:03:55;13.70;1.00
1011;DHT22;494;48.744;10.106;2024-01-30T10:06:25;13.80;1.00
1011;DHT22;494;48.744;10.106;2024-01-30T10:08:53;14.00;1.00
1011;DHT22;494;48.744;10.106;2024-01-30T10:11:23;14.20;1.00
1011;DHT22;494;48.744;10.106;2024-01-30T10:13:52;14.60;1.00
1011;DHT22;494;48.744;10.106;2024-01-30T10:16:20;15.10;1.00
1011;DHT22;494;48.744;10.106;2024-01-30T10:18:49;15.30;1.00
1011;DHT22;494;48.744;10.106;2024-01-30T10:21:20;15.50;1.00
1011;DHT22;494;48.744;10.106;2024-01-30T10:23:49;15.90;1.00
1011;DHT22;494;48.744;10.106;2024-01-30T10:26:18;16.10;1.00
1011;DHT22;494;48.744;10.106;2024-01-30T10:28:48;16.50;1.00
1011;DHT22;494;48.744;10.106;2024-01-30T10:31:17;16.80;1.00
1011;DHT22;494;48.744;10.106;2024-01-30T10:33:46;17.30;1.00
1011;DHT22;494;48.744;10.106;2024-01-30T10:36:17;17.70;1.00
1011;DHT22;494;48.744;10.106;2024-01-30T10:38:51;17.70;1.00
1011;DHT22;494;48.744;10.106;2024-01-30T10:41:27;17.70;1.00
1011;DHT22;494;48.744;10.106;2024-01-30T10:44:03;17.50;1.00
1011;DHT22;494;48.744;10.106;2024-01-30T10:46:38;17.50;1.00
1011;DHT22;494;48.744;10.106;2024-01-30T10:49:10;17.40;1.00
1011;DHT22;494;48.744;10.106;2024-01-30T10:51:42;17.10;1.00
1011;DHT22;494;48.744;10.106;2024-01-30T10:54:13;16.70;1.00
1011;DHT22;494;48.744;10.106;2024-01-30T10:56:43;16.70;1.00
1011;DHT22;494;48.744;10.106;2024-01-30T10:59:12;16.70;1.00
1011;DHT22;494;48.744;10.106;2024-01-30T11:01:42;16.60;1.00
1011;DHT22;494;48.744;10.106;2024-01-30T11:04:11;16.40;1.00
1011;DHT22;494;48.744;10.106;2024-01-30T11:06:42;16.40;1.00
1011;DHT22;494;48.744;10.106;2024-01-30T11:09:12;16.60;1.00
1011;DHT22;494;48.744;10.106;2024-01-30T11:11:49;16.50;1.00
1011;DHT22;494;48.744;10.106;2024-01-30T11:14:26;16.50;1.00
1011;DHT22;494;48.744;10.106;2024-01-30T11:16:57;16.70;1.00
1011;DHT22;494;48.744;10.106;2024-01-30T11:19:30;16.90;1.00
1011;DHT22;494;48.744;10.106;2024-01-30T11:22:01;17.10;1.00
1011;DHT22;494;48.744;10.106;2024-01-30T11:24:30;17.00;1.00
1011;DHT22;494;48.744;10.106;2024-01-30T11:27:07;16.90;1.00
1011;DHT22;494;48.744;10.106;2024-01-30T11:29:37;16.40;1.00
1011;DHT22;494;48.744;10.106;2024-01-30T11:32:08;15.90;1.00
1011;DHT22;494;48.744;10.106;2024-01-30T11:34:41;15.70;1.00
1011;DHT22;494;48.744;10.106;2024-01-30T11:37:12;15.40;1.00
1011;DHT22;494;48.744;10.106;2024-01-30T11:39:44;15.30;1.00
1011;DHT22;494;48.744;10.106;2024-01-30T11:42:15;15.30;1.00
1011;DHT22;494;48.744;10.106;2024-01-30T11:44:48;15.30;1.00
1011;DHT22;494;48.744;10.106;2024-01-30T11:47:17;15.10;1.00
1011;DHT22;494;48.744;10.106;2024-01-30T11:49:46;15.00;1.00
1011;DHT22;494;48.744;10.106;2024-01-30T11:52:17;14.80;1.00
1011;DHT22;494;48.744;10.106;2024-01-30T11:54:46;14.70;1.00
1011;DHT22;494;48.744;10.106;2024-01-30T11:57:15;14.40;1.00
1011;DHT22;494;48.744;10.106;2024-01-30T11:59:44;13.80;1.00
1011;DHT22;494;48.744;10.106;2024-01-30T12:02:16;13.40;1.00
1011;DHT22;494;48.744;10.106;2024-01-30T12:04:45;13.10;1.00
1011;DHT22;494;48.744;10.106;2024-01-30T12:07:13;12.90;1.00
1011;DHT22;494;48.744;10.106;2024-01-30T12:09:53;12.90;1.00
1011;DHT22;494;48.744;10.106;2024-01-30T12:12:25;13.00;1.00
1011;DHT22;494;48.744;10.106;2024-01-30T12:15:06;13.00;1.00
1011;DHT22;494;48.744;10.106;2024-01-30T12:17:36;13.00;1.00
1011;DHT22;494;48.744;10.106;2024-01-30T12:20:06;12.80;1.00
1011;DHT22;494;48.744;10.106;2024-01-30T12:22:39;12.70;1.00
1011;DHT22;494;48.744;10.106;2024-01-30T12:25:12;12.60;1.00
1011;DHT22;494;48.744;10.106;2024-01-30T12:28:09;12.60;1.00
1011;DHT22;494;48.744;10.106;2024-01-30T12:30:39;12.60;1.00
1011;DHT22;494;48.744;10.106;2024-01-30T12:33:15;12.70;1.00
1011;DHT22;494;48.744;10.106;2024-01-30T12:35:48;12.80;1.00
1011;DHT22;494;48.744;10.106;2024-01-30T12:38:28;12.80;1.00
1011;DHT22;494;48.744;10.106;2024-01-30T12:40:59;12.90;1.00
1011;DHT22;494;48.744;10.106;2024-01-30T12:43:29;12.90;1.00
1011;DHT22;494;48.744;10.106;2024-01-30T12:46:05;12.90;1.00
1011;DHT22;494;48.744;10.106;2024-01-30T12:48:35;13.10;1.00
1011;DHT22;494;48.744;10.106;2024-01-30T12:51:05;13.20;1.00
1011;DHT22;494;48.744;10.106;2024-01-30T12:53:34;13.40;1.00
1011;DHT22;494;48.744;10.106;2024-01-30T12:56:05;13.60;1.00
1011;DHT22;494;48.744;10.106;2024-01-30T12:58:38;13.70;1.00
1011;DHT22;494;48.744;10.106;2024-01-30T13:01:09;14.00;1.00
1011;DHT22;494;48.744;10.106;2024-01-30T13:03:39;14.40;1.00
1011;DHT22;494;48.744;10.106;2024-01-30T13:06:08;14.50;1.00
1011;DHT22;494;48.744;10.106;2024-01-30T13:08:39;14.70;1.00
1011;DHT22;494;48.744;10.106;2024-01-30T13:11:11;14.80;1.00
1011;DHT22;494;48.744;10.106;2024-01-30T13:13:47;14.80;1.00
1011;DHT22;494;48.744;10.106;2024-01-30T13:16:18;14.80;1.00
1011;DHT22;494;48.744;10.106;2024-01-30T13:18:48;14.70;1.00
1011;DHT22;494;48.744;10.106;2024-01-30T13:21:17;14.60;1.00
1011;DHT22;494;48.744;10.106;2024-01-30T13:23:47;14.60;1.00
1011;DHT22;494;48.744;10.106;2024-01-30T13:26:23;14.50;1.00
1011;DHT22;494;48.744;10.106;2024-01-30T13:28:52;14.50;1.00
1011;DHT22;494;48.744;10.106;2024-01-30T13:31:21;14.50;1.00
1011;DHT22;494;48.744;10.106;2024-01-30T13:33:50;14.60;1.00
1011;DHT22;494;48.744;10.106;2024-01-30T13:36:19;14.80;1.00
1011;DHT22;494;48.744;10.106;2024-01-30T13:38:48;15.20;1.00
1011;DHT22;494;48.744;10.106;2024-01-30T13:41:17;15.50;1.00
1011;DHT22;494;48.744;10.106;2024-01-30T13:43:52;15.80;1.00
1011;DHT22;494;48.744;10.106;2024-01-30T13:46:22;16.10;1.00
1011;DHT22;494;48.744;10.106;2024-01-30T13:48:56;16.40;1.00
1011;DHT22;494;48.744;10.106;2024-01-30T13:51:26;17.00;1.00
1011;DHT22;494;48.744;10.106;2024-01-30T13:53:58;17.80;1.00
1011;DHT22;494;48.744;10.106;2024-01-30T13:56:28;18.70;1.00
1011;DHT22;494;48.744;10.106;2024-01-30T13:59:00;19.60;1.00
1011;DHT22;494;48.744;10.106;2024-01-30T14:01:33;20.30;1.00
1011;DHT22;494;48.744;10.106;2024-01-30T14:04:04;20.30;1.00
1011;DHT22;494;48.744;10.106;2024-01-30T14:06:45;20.10;1.00
1011;DHT22;494;48.744;10.106;2024-01-30T14:09:27;19.80;1.00
1011;DHT22;494;48.744;10.106;2024-01-30T14:11:57;19.30;1.00
1011;DHT22;494;48.744;10.106;2024-01-30T14:14:27;18.80;1.00
1011;DHT22;494;48.744;10.106;2024-01-30T14:16:57;18.20;1.00
1011;DHT22;494;48.744;10.106;2024-01-30T14:19:27;17.80;1.00
1011;DHT22;494;48.744;10.106;2024-01-30T14:21:58;17.40;1.00
1011;DHT22;494;48.744;10.106;2024-01-30T14:24:31;17.10;1.00
1011;DHT22;494;48.744;10.106;2024-01-30T14:27:03;16.70;1.00
1011;DHT22;494;48.744;10.106;2024-01-30T14:29:33;16.40;1.00
1011;DHT22;494;48.744;10.106;2024-01-30T14:32:03;15.80;1.00
1011;DHT22;494;48.744;10.106;2024-01-30T14:34:34;15.50;1.00
1011;DHT22;494;48.744;10.106;2024-01-30T14:37:10;15.30;1.00
1011;DHT22;494;48.744;10.106;2024-01-30T14:39:40;15.40;1.00
1011;DHT22;494;48.744;10.106;2024-01-30T14:42:12;15.60;1.00
1011;DHT22;494;48.744;10.106;2024-01-30T14:44:43;15.80;1.00
1011;DHT22;494;48.744;10.106;2024-01-30T14:47:16;16.20;1.00
1011;DHT22;494;48.744;10.106;2024-01-30T14:49:46;16.60;1.00
1011;DHT22;494;48.744;10.106;2024-01-30T14:52:14;16.60;1.00
1011;DHT22;494;48.744;10.106;2024-01-30T14:54:43;16.40;1.00
1011;DHT22;494;48.744;10.106;2024-01-30T14:57:12;16.20;1.00
1011;DHT22;494;48.744;10.106;2024-01-30T14:59:43;15.90;1.00
1011;DHT22;494;48.744;10.106;2024-01-30T15:02:13;15.50;1.00
1011;DHT22;494;48.744;10.106;2024-01-30T15:04:43;15.20;1.00
1011;DHT22;494;48.744;10.106;2024-01-30T15:07:13;14.90;1.00
1011;DHT22;494;48.744;10.106;2024-01-30T15:09:58;14.50;1.00
1011;DHT22;494;48.744;10.106;2024-01-30T15:12:27;14.00;1.00
1011;DHT22;494;48.744;10.106;2024-01-30T15:15:01;13.70;1.00
1011;DHT22;494;48.744;10.106;2024-01-30T15:17:32;13.40;1.00
1011;DHT22;494;48.744;10.106;2024-01-30T15:20:00;13.30;1.00
1011;DHT22;494;48.744;10.106;2024-01-30T15:22:31;13.20;1.00
1011;DHT22;494;48.744;10.106;2024-01-30T15:25:00;13.00;1.00
1011;DHT22;494;48.744;10.106;2024-01-30T15:27:33;12.90;1.00
1011;DHT22;494;48.744;10.106;2024-01-30T15:30:25;12.80;1.00
1011;DHT22;494;48.744;10.106;2024-01-30T15:32:59;12.60;1.00
1011;DHT22;494;48.744;10.106;2024-01-30T15:35:32;12.50;1.00
1011;DHT22;494;48.744;10.106;2024-01-30T15:38:16;12.40;1.00
1011;DHT22;494;48.744;10.106;2024-01-30T15:40:46;12.40;1.00
1011;DHT22;494;48.744;10.106;2024-01-30T15:43:17;12.20;1.00
1011;DHT22;494;48.744;10.106;2024-01-30T15:45:48;11.90;1.00
1011;DHT22;494;48.744;10.106;2024-01-30T15:48:18;11.60;1.00
1011;DHT22;494;48.744;10.106;2024-01-30T15:50:47;11.30;1.00
1011;DHT22;494;48.744;10.106;2024-01-30T15:53:19;11.10;1.00
1011;DHT22;494;48.744;10.106;2024-01-30T15:55:55;11.00;1.00
1011;DHT22;494;48.744;10.106;2024-01-30T15:58:24;10.90;1.00
1011;DHT22;494;48.744;10.106;2024-01-30T16:01:02;10.70;1.00
1011;DHT22;494;48.744;10.106;2024-01-30T16:03:33;10.50;1.00
1011;DHT22;494;48.744;10.106;2024-01-30T16:06:02;10.20;1.00
1011;DHT22;494;48.744;10.106;2024-01-30T16:08:32;10.00;1.00
1011;DHT22;494;48.744;10.106;2024-01-30T16:11:03;10.00;1.00
1011;DHT22;494;48.744;10.106;2024-01-30T16:13:32;9.90;1.00
1011;DHT22;494;48.744;10.106;2024-01-30T16:16:07;9.80;1.00
1011;DHT22;494;48.744;10.106;2024-01-30T16:18:38;9.80;1.00
1011;DHT22;494;48.744;10.106;2024-01-30T16:21:07;9.70;1.00
1011;DHT22;494;48.744;10.106;2024-01-30T16:23:39;9.70;1.00
1011;DHT22;494;48.744;10.106;2024-01-30T16:26:09;9.50;1.00
1011;DHT22;494;48.744;10.106;2024-01-30T16:28:44;9.40;1.00
1011;DHT22;494;48.744;10.106;2024-01-30T16:31:22;9.40;1.00
1011;DHT22;494;48.744;10.106;2024-01-30T16:33:55;9.30;1.00
1011;DHT22;494;48.744;10.106;2024-01-30T16:36:32;9.20;1.00
1011;DHT22;494;48.744;10.106;2024-01-30T16:39:08;9.10;1.00
1011;DHT22;494;48.744;10.106;2024-01-30T16:41:37;9.10;1.00
1011;DHT22;494;48.744;10.106;2024-01-30T16:44:07;8.90;1.00
1011;DHT22;494;48.744;10.106;2024-01-30T16:46:38;8.80;1.00
1011;DHT22;494;48.744;10.106;2024-01-30T16:49:09;8.70;1.00